Time;durP1;ratioP1;P1;durP2;ratioP2;P2;SDS_P1;SDS_P2;PMS_P1;PMS_P2;Temp;Humidity;BMP_temperature;BMP_pressure;BME280_temperature;BME280_humidity;BME280_pressure;Samples;Min_cycle;Max_cycle;Signal;HPM_P1;HPM_P2
2021/10/22 11:45:31;;;;;;;0.85;0.50;;;18.70;97.40;;;18.20;59.65;94914.59;1030805;44;61755807;-70
2021/10/22 11:47:55;;;;;;;0.55;0.50;;;18.60;93.60;;;19.23;56.38;94917.37;2084992;55;20186;-72
2021/10/22 11:50:18;;;;;;;;;;;18.50;93.40;;;19.96;54.16;94905.16;2104953;55;20396;-71
2021/10/22 11:52:20;;;;;;;1.33;0.50;;;18.50;93.30;;;20.52;52.42;94914.41;2087349;56;20919;-70
2021/10/22 11:54:43;;;;;;;0.30;0.30;;;18.50;93.20;;;20.96;51.28;94908.66;2086366;55;24998;-68
2021/10/22 11:56:48;;;;;;;0.62;0.57;;;18.50;93.30;;;21.35;50.54;94889.81;2080495;55;20227;-73
2021/10/22 11:58:49;;;;;;;1.80;1.08;;;18.60;93.20;;;21.61;49.33;94897.84;2087319;55;20206;-70
2021/10/22 12:00:52;;;;;;;3.10;1.55;;;18.70;93.00;;;21.84;49.03;94899.22;2097023;55;20174;-70
2021/10/22 12:02:54;;;;;;;9.52;5.80;;;18.70;92.70;;;22.04;48.73;94893.09;2084447;55;20246;-69
2021/10/22 12:05:06;;;;;;;22.13;8.43;;;18.70;92.50;;;22.21;47.93;94889.47;2105525;55;20142;-71
2021/10/22 12:07:09;;;;;;;26.85;11.43;;;18.80;92.50;;;22.34;47.19;94902.00;2081656;55;20183;-69
2021/10/22 12:09:34;;;;;;;29.45;14.27;;;18.80;92.40;;;22.42;47.87;94897.69;2077645;55;20287;-70
2021/10/22 12:11:35;;;;;;;26.30;13.13;;;18.90;92.60;;;22.49;47.28;94885.16;2091939;55;20319;-71
2021/10/22 12:13:40;;;;;;;22.05;10.93;;;18.90;92.70;;;22.55;46.36;94891.19;2068981;55;20234;-69
2021/10/22 12:15:42;;;;;;;19.67;10.75;;;18.90;92.10;;;22.61;46.93;94884.41;2059458;55;20336;-69
2021/10/22 12:17:44;;;;;;;16.60;10.25;;;18.90;92.00;;;22.65;46.26;94879.13;2099503;55;20155;-70
2021/10/22 12:19:47;;;;;;;22.30;10.52;;;19.00;91.80;;;22.67;46.76;94874.94;2095192;56;21024;-67
2021/10/22 12:21:50;;;;;;;13.75;8.25;;;19.00;91.70;;;22.71;46.47;94875.84;2054710;55;20212;-67
2021/10/22 12:24:00;;;;;;;16.30;9.35;;;19.00;91.40;;;22.73;46.00;94865.44;2068498;55;20272;-67
2021/10/22 12:26:01;;;;;;;16.48;10.18;;;19.10;91.30;;;22.75;45.42;94865.91;2064968;55;20358;-67
2021/10/22 12:28:16;;;;;;;13.15;7.72;;;19.10;91.00;;;22.78;46.03;94870.69;2066431;55;20205;-68
2021/10/22 12:30:25;;;;;;;11.38;5.87;;;19.20;90.90;;;22.80;45.78;94865.75;2078108;55;20273;-67
2021/10/22 12:32:53;;;;;;;8.55;5.62;;;19.20;90.70;;;22.85;45.79;94858.53;2084319;55;20182;-67
2021/10/22 12:34:55;;;;;;;9.93;5.00;;;19.20;90.50;;;22.86;45.55;94863.63;2081993;55;20181;-67
2021/10/22 12:37:15;;;;;;;6.30;4.25;;;19.20;90.60;;;22.89;44.65;94854.81;2077792;55;20131;-67
2021/10/22 12:39:27;;;;;;;10.38;4.87;;;19.30;90.40;;;22.88;45.12;94857.88;2081631;55;20637;-67
2021/10/22 12:41:29;;;;;;;7.30;4.43;;;19.30;90.70;;;22.90;44.67;94870.00;2082974;55;20150;-66
2021/10/22 12:43:35;;;;;;;6.20;4.05;;;19.30;90.30;;;22.93;44.71;94861.16;2082813;55;20784;-68
2021/10/22 12:45:51;;;;;;;6.95;3.37;;;19.40;90.30;;;22.94;45.45;94851.09;2099051;55;20210;-68
2021/10/22 12:47:53;;;;;;;10.75;3.78;;;19.40;90.20;;;22.95;44.90;94858.13;2089892;55;21339;-68
2021/10/22 12:49:54;;;;;;;11.93;4.57;;;19.40;90.20;;;22.95;44.67;94864.34;2081502;55;20241;-68
2021/10/22 12:52:04;;;;;;;21.83;4.80;;;19.50;90.20;;;22.96;45.43;94857.78;2075051;55;20808;-67
2021/10/22 12:54:05;;;;;;;22.30;4.35;;;19.50;90.20;;;22.99;44.77;94861.75;2080967;55;20258;-67
2021/10/22 12:56:12;;;;;;;38.80;4.53;;;19.50;90.30;;;23.02;45.72;94858.38;2080888;55;20195;-66
2021/10/22 12:58:17;;;;;;;23.75;3.87;;;19.50;90.30;;;23.03;45.45;94857.22;2079720;55;24247;-67
2021/10/22 13:02:51;;;;;;;21.92;4.47;;;19.50;90.50;;;23.02;45.31;94864.59;4069433;26;20152;-76
2021/10/22 13:05:24;;;;;;;29.60;5.40;;;19.50;90.60;;;23.01;44.79;94862.22;2066896;56;20202;-78
2021/10/22 13:07:37;;;;;;;17.48;4.28;;;19.50;90.70;;;23.01;44.67;94856.78;2083309;55;20820;-77
2021/10/22 13:14:26;;;;;;;40.55;6.68;;;19.50;90.70;;;23.04;44.75;94856.91;2097053;56;20168;-79
2021/10/22 13:21:10;;;;;;;31.70;6.97;;;19.40;90.60;;;23.02;45.06;94844.78;2096218;56;20161;-77
2021/10/22 13:23:15;;;;;;;26.83;6.35;;;19.40;90.60;;;23.01;45.48;94845.91;2094038;56;20185;-78
2021/10/22 13:25:16;;;;;;;28.23;7.65;;;19.40;91.00;;;23.02;45.35;94850.22;2097244;56;20288;-78
2021/10/22 13:27:17;;;;;;;20.05;6.57;;;19.40;90.70;;;23.02;45.19;94848.28;2091215;56;20177;-78
2021/10/22 13:29:19;;;;;;;28.33;7.28;;;19.30;90.70;;;23.02;45.23;94853.72;2105043;56;20158;-77
2021/10/22 13:31:21;;;;;;;27.70;8.35;;;19.30;90.90;;;23.02;45.21;94839.34;2100634;56;21566;-78
2021/10/22 13:33:29;;;;;;;22.62;7.95;;;19.40;91.00;;;23.03;45.05;94843.63;2102999;56;20253;-77
2021/10/22 13:35:31;;;;;;;22.02;6.57;;;19.30;91.00;;;23.03;45.75;94851.78;2095750;56;20245;-77
2021/10/22 13:37:33;;;;;;;41.08;8.75;;;19.40;91.20;;;23.03;45.46;94860.75;2090178;56;20181;-78
2021/10/22 13:39:35;;;;;;;;;;;19.30;91.30;;;23.04;45.01;94853.38;2102340;56;20184;-78
2021/10/22 13:41:36;;;;;;;39.78;9.65;;;19.30;91.50;;;23.03;46.14;94849.06;2096440;56;20038;-79
2021/10/22 13:43:37;;;;;;;38.80;9.88;;;19.30;91.90;;;23.05;45.53;94852.25;2095866;56;20184;-77
2021/10/22 13:45:40;;;;;;;48.08;11.77;;;19.30;92.00;;;23.05;45.14;94852.25;2112420;55;20229;-77
2021/10/22 13:47:42;;;;;;;56.67;11.85;;;19.30;92.80;;;23.05;45.84;94857.69;2085512;56;20870;-76
2021/10/22 13:49:43;;;;;;;53.85;11.73;;;19.30;93.10;;;23.06;46.79;94859.28;2093905;56;21337;-77
2021/10/22 13:51:45;;;;;;;36.88;11.57;;;19.30;93.30;;;23.06;46.00;94860.06;2097594;56;20181;-78
2021/10/22 13:53:47;;;;;;;46.22;13.05;;;19.30;93.50;;;23.05;45.90;94858.50;2086681;56;20177;-77
2021/10/22 13:55:49;;;;;;;38.80;10.00;;;19.30;93.70;;;23.06;46.44;94864.72;2100156;56;20192;-78
2021/10/22 13:57:51;;;;;;;30.88;10.15;;;19.30;93.80;;;23.04;46.17;94864.25;2100083;56;20546;-79
2021/10/22 13:59:52;;;;;;;31.60;9.77;;;19.30;93.70;;;23.03;46.34;94874.34;2094003;56;20192;-79
2021/10/22 14:01:53;;;;;;;36.70;9.27;;;19.20;93.80;;;23.03;46.61;94870.81;2098746;56;20162;-77
2021/10/22 14:03:54;;;;;;;49.30;9.73;;;19.20;93.70;;;23.01;45.40;94873.88;2096384;56;20293;-78
2021/10/22 14:05:56;;;;;;;34.58;8.68;;;19.20;93.70;;;22.97;45.60;94864.00;2100001;56;20173;-78
2021/10/22 14:07:57;;;;;;;33.38;9.18;;;19.10;93.80;;;22.98;45.93;94869.13;2109922;55;20657;-79
2021/10/22 14:09:58;;;;;;;35.03;8.45;;;19.20;93.80;;;22.99;45.69;94875.34;2104908;56;20283;-78
2021/10/22 14:12:18;;;;;;;42.00;9.15;;;19.20;93.80;;;22.99;46.38;94876.12;2098901;56;21265;-79
2021/10/22 14:14:40;;;;;;;54.42;9.52;;;19.20;93.70;;;22.98;46.60;94874.56;2100138;55;20166;-79
2021/10/22 14:29:49;;;;;;;35.25;8.27;;;19.20;94.00;;;22.93;46.29;94884.84;2097323;55;20318;-79
2021/10/22 14:31:50;;;;;;;26.73;7.97;;;19.20;94.10;;;22.95;46.42;94893.47;2102241;55;20188;-78
2021/10/22 14:33:51;;;;;;;31.08;9.07;;;19.20;93.90;;;22.94;46.36;94889.16;2093470;56;20146;-79
2021/10/22 14:35:52;;;;;;;21.10;8.45;;;19.20;93.70;;;22.95;45.84;94896.19;2098299;55;20185;-79
2021/10/22 14:37:53;;;;;;;28.05;8.05;;;19.10;93.50;;;22.93;45.74;94887.56;2101245;56;21915;-80
2021/10/22 14:39:54;;;;;;;23.23;9.27;;;19.10;93.40;;;22.92;45.97;94897.62;2105304;56;21166;-80
2021/10/22 14:41:56;;;;;;;23.70;9.02;;;19.10;93.30;;;22.93;45.48;94898.44;2099518;56;20173;-78
2021/10/22 14:44:05;;;;;;;25.27;8.65;;;19.10;93.30;;;22.93;45.81;94893.78;2096041;56;20266;-77
2021/10/22 14:48:42;;;;;;;29.87;13.95;;;19.10;93.20;;;22.91;45.73;94901.47;2083071;56;20193;-79
2021/10/22 14:50:45;;;;;;;34.90;12.88;;;19.10;93.10;;;22.92;46.17;94894.91;2077549;56;20187;-80
2021/10/22 14:57:28;;;;;;;29.48;14.57;;;19.00;92.80;;;22.92;45.14;94900.34;2076440;56;20926;-79
2021/10/22 14:59:36;;;;;;;35.60;16.35;;;19.00;92.80;;;22.90;45.69;94899.09;2069283;56;20791;-79
2021/10/22 15:01:46;;;;;;;31.17;17.42;;;19.00;92.80;;;22.89;45.57;94897.50;2082204;56;20193;-80
2021/10/22 15:03:56;;;;;;;43.10;18.83;;;19.00;92.80;;;22.89;45.27;94901.03;2080365;56;20171;-80
2021/10/22 15:06:06;;;;;;;42.42;16.08;;;19.00;92.80;;;22.89;44.88;94908.38;2084180;56;20178;-79
2021/10/22 15:08:14;;;;;;;38.53;18.08;;;19.00;92.70;;;22.87;45.10;94897.06;2081220;56;21781;-79
2021/10/22 15:10:21;;;;;;;40.55;18.58;;;19.00;92.80;;;22.87;45.62;94905.19;2080692;56;20158;-80
2021/10/22 15:12:22;;;;;;;42.28;19.02;;;19.00;92.80;;;22.84;45.79;94914.03;2080307;56;20174;-80
2021/10/22 15:14:24;;;;;;;35.78;16.52;;;19.00;92.80;;;22.83;45.06;94909.72;2093241;56;20541;-81
2021/10/22 15:16:25;;;;;;;40.28;18.60;;;19.00;93.00;;;22.83;45.34;94912.44;2086803;56;20202;-83
2021/10/22 15:18:26;;;;;;;34.60;17.05;;;19.00;93.20;;;22.81;46.05;94921.72;2074152;56;20835;-80
2021/10/22 15:20:30;;;;;;;31.62;16.60;;;18.90;93.30;;;22.80;44.96;94922.81;2076290;56;20422;-81
2021/10/22 15:22:32;;;;;;;36.20;18.70;;;19.00;93.30;;;22.84;45.60;94927.63;2073745;56;21996;-82
2021/10/22 15:24:33;;;;;;;33.47;16.23;;;19.00;93.30;;;22.87;45.41;94926.94;2074987;56;20194;-80
2021/10/22 15:26:37;;;;;;;32.15;15.10;;;19.00;93.10;;;22.88;45.24;94929.34;2088248;55;20181;-80
2021/10/22 15:28:38;;;;;;;25.75;14.80;;;19.00;92.90;;;22.92;45.53;94924.03;2086297;56;20228;-80
2021/10/22 15:30:39;;;;;;;19.55;12.02;;;19.00;92.80;;;22.93;45.26;94928.34;2100775;55;20192;-80
2021/10/22 15:32:43;;;;;;;28.50;12.82;;;19.00;92.40;;;22.96;44.53;94930.38;2093255;56;20262;-79
2021/10/22 15:34:48;;;;;;;25.80;12.37;;;19.00;92.40;;;22.95;44.89;94928.78;2098295;56;20204;-79
2021/10/22 15:37:03;;;;;;;17.02;10.35;;;19.00;91.90;;;22.95;44.97;94928.78;2090567;56;21092;-79
2021/10/22 15:39:07;;;;;;;15.25;9.02;;;19.00;91.50;;;22.96;44.17;94933.91;2086725;56;20227;-80
2021/10/22 15:41:09;;;;;;;15.30;9.20;;;19.10;91.40;;;22.97;44.56;94934.69;2089097;56;20813;-78
2021/10/22 15:43:11;;;;;;;18.33;10.05;;;19.10;91.30;;;22.95;44.20;94934.22;2084625;56;20236;-79
2021/10/22 15:45:13;;;;;;;13.35;9.13;;;19.10;91.30;;;22.99;43.90;94932.44;2094076;56;20158;-81
2021/10/22 15:47:14;;;;;;;22.50;9.70;;;19.10;91.20;;;22.99;44.06;94935.16;2092266;55;20239;-80
2021/10/22 15:49:15;;;;;;;13.23;9.30;;;19.10;91.60;;;22.99;43.95;94932.44;2098019;56;20177;-79
2021/10/22 15:51:17;;;;;;;19.23;8.85;;;19.10;91.50;;;22.98;44.26;94934.38;2089232;56;20185;-80
2021/10/22 15:53:20;;;;;;;11.25;7.53;;;19.10;91.60;;;22.97;44.68;94926.53;2093660;56;20186;-79
2021/10/22 15:55:21;;;;;;;14.18;7.25;;;19.00;91.50;;;22.97;44.23;94934.69;2096826;56;20182;-78
2021/10/22 15:57:30;;;;;;;13.90;8.52;;;19.10;91.60;;;22.96;44.86;94935.81;2091012;56;20195;-78
2021/10/22 15:59:32;;;;;;;16.23;7.47;;;19.10;91.60;;;22.95;44.19;94937.75;2099312;56;20178;-78
2021/10/22 16:01:34;;;;;;;9.40;6.32;;;19.00;91.70;;;22.95;44.85;94945.91;2094032;56;20317;-79
2021/10/22 16:03:35;;;;;;;17.83;7.22;;;19.10;91.80;;;22.94;44.51;94938.09;2096711;56;20190;-77
2021/10/22 16:05:38;;;;;;;13.20;7.75;;;19.10;91.90;;;22.94;44.78;94941.59;2090363;56;20182;-80
2021/10/22 16:11:52;;;;;;;10.63;6.68;;;19.00;91.00;;;22.91;43.77;94944.19;2094497;56;20225;-79
2021/10/22 16:16:19;;;;;;;9.23;5.82;;;19.00;91.10;;;22.87;44.13;94944.06;2093379;55;20033;-79
2021/10/22 16:18:20;;;;;;;9.57;5.00;;;19.00;91.10;;;22.88;44.67;94945.66;2094763;55;20184;-78
2021/10/22 16:20:21;;;;;;;9.57;5.65;;;19.00;91.20;;;22.86;43.86;94950.63;2101482;56;20182;-78
2021/10/22 16:22:23;;;;;;;7.70;5.32;;;19.00;91.30;;;22.86;43.73;94947.91;2107753;56;21744;-78
2021/10/22 16:24:24;;;;;;;6.40;4.68;;;19.00;91.40;;;22.86;45.00;94949.81;2101813;56;20173;-79
2021/10/22 16:26:25;;;;;;;7.47;4.78;;;19.00;91.50;;;22.85;44.89;94961.81;2097779;56;20176;-80
2021/10/22 16:28:27;;;;;;;7.80;4.57;;;19.00;91.70;;;22.84;44.36;94949.34;2086397;56;20490;-79
2021/10/22 16:30:28;;;;;;;8.18;4.80;;;19.00;91.80;;;22.84;45.04;94965.66;2094924;56;20186;-78
2021/10/22 16:32:30;;;;;;;7.03;5.30;;;19.00;92.00;;;22.84;44.86;94965.66;2100216;55;20208;-79
2021/10/22 16:36:51;;;;;;;8.18;5.30;;;19.00;92.30;;;22.80;44.09;94960.88;2099686;55;20742;-79
2021/10/22 16:38:52;;;;;;;5.70;4.05;;;18.90;92.00;;;22.79;44.42;94964.69;2093477;56;20233;-79
2021/10/22 16:40:53;;;;;;;5.35;4.07;;;19.00;92.00;;;22.78;44.31;94976.69;2094445;56;20178;-79
2021/10/22 16:42:55;;;;;;;11.07;4.75;;;18.90;92.00;;;22.78;44.37;94971.25;2094926;56;20940;-79
2021/10/22 16:44:59;;;;;;;5.05;4.18;;;18.90;92.00;;;22.76;45.38;94975.41;2097781;56;20256;-80
2021/10/22 16:47:01;;;;;;;5.30;4.28;;;18.90;92.00;;;22.75;44.62;94971.91;2092589;55;21225;-81
2021/10/22 16:49:02;;;;;;;7.12;4.15;;;18.90;92.00;;;22.75;44.63;94980.06;2097514;56;20229;-79
2021/10/22 16:51:03;;;;;;;4.62;4.22;;;18.90;92.00;;;22.74;44.26;94986.63;2095033;56;20196;-78
2021/10/22 16:53:05;;;;;;;5.95;4.47;;;18.90;92.00;;;22.73;44.71;94987.75;2095430;56;20793;-77
2021/10/22 16:55:09;;;;;;;9.13;5.07;;;18.80;91.90;;;22.72;45.08;94990.78;2102290;56;20161;-79
2021/10/22 16:57:10;;;;;;;6.30;4.45;;;18.80;91.90;;;22.71;45.13;94989.19;2112056;55;20568;-79
2021/10/22 16:59:14;;;;;;;10.05;5.53;;;18.80;91.90;;;22.69;45.13;94986.81;2109896;56;20260;-79
2021/10/22 17:01:19;;;;;;;10.90;5.25;;;18.90;91.90;;;22.70;44.32;94999.28;2100287;56;20661;-81
2021/10/22 17:03:20;;;;;;;8.77;5.87;;;18.80;91.80;;;22.69;45.01;95003.13;2106609;55;20214;-78
2021/10/22 17:05:25;;;;;;;7.18;5.18;;;18.80;91.70;;;22.69;44.13;95005.84;2105325;55;20510;-79
2021/10/22 17:07:25;;;;;;;8.63;5.65;;;18.80;91.70;;;22.67;44.01;95005.38;2104908;55;20196;-79
2021/10/22 17:09:29;;;;;;;7.60;5.87;;;18.80;91.80;;;22.67;45.07;95001.84;2109496;56;20181;-79
2021/10/22 17:11:31;;;;;;;6.05;4.65;;;18.80;91.80;;;22.65;43.82;95010.34;2090022;56;20225;-79
2021/10/22 17:13:33;;;;;;;6.40;5.50;;;18.80;91.60;;;22.67;44.45;95016.25;2097533;56;20194;-79
2021/10/22 17:15:34;;;;;;;7.60;6.40;;;18.80;91.70;;;22.65;44.83;95015.78;2106314;55;20184;-79
2021/10/22 17:17:37;;;;;;;8.27;6.50;;;18.80;91.70;;;22.66;43.87;95024.72;2086418;56;20407;-79
2021/10/22 17:19:39;;;;;;;7.55;5.32;;;18.80;91.70;;;22.65;44.83;95023.94;2090736;56;84977;-79
2021/10/22 17:21:40;;;;;;;6.65;4.95;;;18.70;91.60;;;22.64;43.87;95033.22;2097673;56;20157;-80
2021/10/22 17:23:42;;;;;;;11.55;5.93;;;18.70;91.60;;;22.64;44.54;95038.63;2097351;56;20607;-80
2021/10/22 17:25:46;;;;;;;6.30;5.80;;;18.70;91.60;;;22.65;44.01;95050.31;2092100;56;20161;-78
2021/10/22 17:27:53;;;;;;;10.45;5.35;;;18.70;91.60;;;22.64;44.20;95049.50;2097268;56;20127;-80
2021/10/22 17:31:28;;;;;;;8.40;5.47;;;18.70;91.70;;;22.62;44.72;95051.75;1018088;44;61779518;-72
2021/10/22 17:33:29;;;;;;;6.60;5.82;;;18.70;91.70;;;22.62;44.08;95057.19;2044766;56;20927;-74
2021/10/22 17:35:30;;;;;;;6.20;5.65;;;18.70;91.80;;;22.62;44.63;95061.84;2083032;56;20162;-75
2021/10/22 17:37:31;;;;;;;7.75;6.93;;;18.70;91.80;;;22.63;44.28;95063.41;2076777;56;22528;-74
2021/10/22 17:39:33;;;;;;;7.57;6.22;;;18.70;91.80;;;22.61;44.09;95071.91;2085810;55;78984;-73
2021/10/22 17:41:35;;;;;;;11.40;6.00;;;18.70;91.90;;;22.61;44.30;95074.63;2091656;56;20256;-73
2021/10/22 17:43:35;;;;;;;9.68;7.07;;;18.70;91.90;;;22.62;45.01;95080.84;2080288;56;20201;-74
2021/10/22 17:48:44;;;;;;;8.10;6.00;;;18.70;91.90;;;22.60;44.83;95092.03;6005104;19;20334;-74
2021/10/22 17:50:44;;;;;;;7.47;6.40;;;18.70;92.00;;;22.59;44.89;95089.66;6027648;19;20020;-75
2021/10/22 17:52:49;;;;;;;7.75;5.90;;;18.70;92.10;;;22.59;44.62;95095.09;6016842;19;20007;-74
2021/10/22 17:54:51;;;;;;;6.32;5.70;;;18.60;92.10;;;22.57;44.79;95092.69;6045442;19;20010;-74
2021/10/22 17:56:52;;;;;;;7.85;5.53;;;18.70;92.10;;;22.59;44.56;95100.53;6038995;19;20014;-74
2021/10/22 17:58:52;;;;;;;6.90;6.28;;;18.60;92.10;;;22.57;44.44;95098.13;6059235;19;20713;-74
2021/10/22 18:00:53;;;;;;;6.47;5.88;;;18.60;92.10;;;22.57;44.50;95095.41;6069023;19;20356;-74
2021/10/22 18:02:54;;;;;;;7.60;6.22;;;18.60;92.10;;;22.56;44.95;95101.97;6062362;19;20010;-74
2021/10/22 18:04:55;;;;;;;6.95;6.15;;;18.60;92.20;;;22.54;44.49;95098.78;6071198;19;20014;-73
2021/10/22 18:06:56;;;;;;;7.50;6.38;;;18.60;92.20;;;22.54;44.78;95104.22;6066383;19;20060;-74
2021/10/22 18:08:59;;;;;;;6.18;5.78;;;18.60;92.20;;;22.54;44.93;95111.56;6043625;19;20006;-74
2021/10/22 18:11:02;;;;;;;6.68;5.47;;;18.60;92.20;;;22.54;44.47;95104.22;6034049;19;20031;-75
2021/10/22 18:13:03;;;;;;;;;;;18.60;92.20;;;22.54;44.59;95104.22;6042269;19;20029;-75
2021/10/22 18:15:05;;;;;;;6.57;5.97;;;18.60;92.30;;;22.52;44.81;95107.25;6068611;19;19922;-74
2021/10/22 18:17:06;;;;;;;6.38;5.78;;;18.60;92.30;;;22.51;44.94;95102.94;6059400;19;20060;-74
2021/10/22 18:19:07;;;;;;;14.02;6.03;;;18.60;92.30;;;22.50;44.92;95108.72;6067702;19;20014;-74
2021/10/22 18:21:08;;;;;;;7.32;5.35;;;18.60;92.30;;;22.49;45.07;95113.34;6085946;19;20346;-73
2021/10/22 18:23:10;;;;;;;5.93;5.38;;;18.60;92.30;;;22.49;44.69;95118.00;6066700;19;20378;-74
2021/10/22 18:25:11;;;;;;;8.63;5.35;;;18.60;92.40;;;22.49;44.99;95112.56;6051014;19;20022;-74
2021/10/22 18:27:12;;;;;;;5.25;4.68;;;18.60;92.40;;;22.48;44.88;95117.19;6049507;19;20002;-74
2021/10/22 18:29:50;;;;;;;7.15;5.45;;;18.50;92.40;;;22.47;44.57;95115.59;6067256;19;20016;-74
2021/10/22 18:31:41;;;;;;;5.95;5.03;;;18.60;92.40;;;22.46;44.86;95124.88;6065292;19;20010;-73
2021/10/22 18:33:44;;;;;;;5.40;4.90;;;18.50;92.40;;;22.46;44.70;95126.78;6027424;19;23472;-73
2021/10/22 18:35:46;;;;;;;7.35;5.10;;;18.50;92.40;;;22.46;44.70;95126.78;6050748;19;20078;-74
2021/10/22 18:37:47;;;;;;;5.82;5.18;;;18.60;92.50;;;22.45;45.16;95139.56;6043586;19;20694;-74
2021/10/22 18:39:52;;;;;;;6.22;5.20;;;18.50;92.50;;;22.45;44.91;95133.34;6048630;19;20334;-74
2021/10/22 18:41:56;;;;;;;5.28;4.70;;;18.50;92.50;;;22.44;44.97;95137.97;6039526;19;20014;-74
2021/10/22 18:43:58;;;;;;;5.50;5.00;;;18.50;92.50;;;22.43;44.97;95138.31;6087716;19;20014;-75
2021/10/22 18:46:00;;;;;;;7.80;5.82;;;18.50;92.50;;;22.41;44.70;95144.03;6063943;19;20022;-74
2021/10/22 18:48:06;;;;;;;5.80;5.13;;;18.50;92.60;;;22.41;45.11;95149.47;6068137;19;20010;-74
2021/10/22 18:50:11;;;;;;;5.07;4.68;;;18.50;92.60;;;22.40;45.13;95144.34;6073413;19;20018;-73
2021/10/22 18:52:16;;;;;;;5.78;4.90;;;18.50;92.70;;;22.40;45.32;95149.78;6077193;19;20374;-73
2021/10/22 18:54:17;;;;;;;4.82;4.43;;;18.50;92.70;;;22.38;44.86;95150.13;6079385;19;20025;-74
2021/10/22 18:56:18;;;;;;;5.30;4.80;;;18.50;92.60;;;22.39;44.67;95159.06;6078016;19;20010;-73
2021/10/22 18:58:20;;;;;;;5.03;4.28;;;18.50;92.70;;;22.38;44.89;95154.75;6058721;19;20006;-74
2021/10/22 19:00:22;;;;;;;5.30;4.90;;;18.50;92.70;;;22.37;44.97;95153.94;6025370;19;20831;-75
2021/10/22 19:02:25;;;;;;;5.95;4.65;;;18.50;92.80;;;22.37;44.96;95161.31;5987829;19;20010;-76
2021/10/22 19:04:26;;;;;;;5.35;4.85;;;18.40;92.70;;;22.37;45.10;95153.16;6036789;19;20006;-75
2021/10/22 19:06:43;;;;;;;5.75;5.15;;;18.50;92.70;;;22.35;45.22;95161.63;6019636;19;20015;-75
2021/10/22 19:08:46;;;;;;;5.18;4.68;;;18.50;92.80;;;22.35;45.24;95166.25;6027744;19;20027;-76
2021/10/22 19:10:49;;;;;;;5.80;4.90;;;18.40;92.80;;;22.35;45.12;95160.84;6010259;19;20589;-74
2021/10/22 19:12:53;;;;;;;5.63;4.90;;;18.40;92.70;;;22.35;45.28;95167.06;6022614;19;20003;-74
2021/10/22 19:15:00;;;;;;;5.35;4.85;;;18.40;92.80;;;22.36;45.01;95173.28;6028333;19;21042;-74
2021/10/22 19:17:02;;;;;;;5.13;4.72;;;18.40;92.80;;;22.36;45.21;95165.16;6032301;19;20017;-75
2021/10/22 19:19:04;;;;;;;6.50;4.47;;;18.40;92.80;;;22.36;45.28;95168.66;6039519;19;20589;-75
2021/10/22 19:21:05;;;;;;;5.20;4.75;;;18.40;92.70;;;22.36;45.09;95173.28;6036732;19;21189;-75
2021/10/22 19:23:06;;;;;;;4.82;4.38;;;18.40;92.80;;;22.36;45.15;95170.56;6009198;19;20006;-74
2021/10/22 19:25:09;;;;;;;5.60;4.70;;;18.40;92.70;;;22.36;44.98;95184.16;6031521;19;20621;-74
2021/10/22 19:27:11;;;;;;;5.05;4.55;;;18.40;92.70;;;22.36;44.57;95178.72;6048808;19;20350;-74
2021/10/22 19:29:13;;;;;;;4.57;4.17;;;18.40;92.80;;;22.35;44.81;95177.13;6049471;19;20119;-74
2021/10/22 19:31:16;;;;;;;5.47;4.93;;;18.40;92.80;;;22.32;44.73;95175.84;6048849;19;20030;-75
2021/10/22 19:33:17;;;;;;;;;;;18.40;92.80;;;22.32;44.71;95178.56;6035287;19;20018;-74
2021/10/22 19:35:19;;;;;;;4.80;4.40;;;18.40;92.80;;;22.31;45.08;95187.84;6047078;19;19922;-74
2021/10/22 19:37:20;;;;;;;4.55;4.15;;;18.40;92.80;;;22.30;45.01;95186.25;6065007;19;20011;-75
2021/10/22 19:39:21;;;;;;;6.68;4.78;;;18.40;92.90;;;22.29;45.43;95192.78;6054313;19;20159;-75
2021/10/22 19:41:22;;;;;;;7.03;4.95;;;18.40;92.90;;;22.28;45.31;95193.91;6043871;19;20010;-75
2021/10/22 19:43:23;;;;;;;5.97;5.18;;;18.40;92.90;;;22.29;45.11;95194.72;6043566;19;20003;-75
2021/10/22 19:45:24;;;;;;;5.20;4.80;;;18.30;92.90;;;22.28;44.97;95190.41;6054540;19;20217;-74
2021/10/22 19:47:26;;;;;;;5.70;5.07;;;18.30;93.00;;;22.27;45.19;95202.38;6054130;19;21603;-74
2021/10/22 19:49:27;;;;;;;5.43;4.80;;;18.40;93.30;;;22.26;45.28;95201.59;6045243;19;20693;-75
2021/10/22 19:51:28;;;;;;;6.35;5.05;;;18.30;93.20;;;22.27;45.21;95207.81;6052337;19;20035;-74
2021/10/22 19:53:29;;;;;;;6.35;5.85;;;18.30;93.00;;;22.25;45.18;95204.63;6043609;19;20042;-76
2021/10/22 19:55:30;;;;;;;5.80;5.28;;;18.30;93.10;;;22.25;44.97;95205.44;6059344;19;20018;-72
2021/10/22 19:57:31;;;;;;;6.65;6.05;;;18.30;93.10;;;22.24;45.30;95209.25;6039483;19;20820;-75
2021/10/22 19:59:31;;;;;;;5.95;5.32;;;18.30;93.10;;;22.23;45.09;95215.81;6050647;19;20499;-74
2021/10/22 20:01:32;;;;;;;5.88;5.28;;;18.30;93.10;;;22.23;44.99;95221.25;6022012;19;20400;-74
2021/10/22 20:03:34;;;;;;;5.85;5.38;;;18.30;93.10;;;22.23;45.38;95223.16;6037796;19;20106;-73
2021/10/22 20:05:35;;;;;;;5.75;5.35;;;18.30;93.10;;;22.23;45.39;95229.41;6027788;19;20081;-73
2021/10/22 20:07:36;;;;;;;6.05;5.50;;;18.30;93.20;;;22.23;45.39;95237.53;6045770;19;20011;-73
2021/10/22 20:09:37;;;;;;;6.28;5.68;;;18.30;93.20;;;22.22;45.30;95240.56;6048651;19;20159;-74
2021/10/22 20:11:38;;;;;;;5.82;5.32;;;18.30;93.20;;;22.20;45.14;95233.56;6050333;19;20014;-73
2021/10/22 20:13:41;;;;;;;5.60;5.10;;;18.30;93.20;;;22.20;45.51;95240.91;6019090;19;22922;-73
2021/10/22 20:15:42;;;;;;;5.90;5.45;;;18.30;93.30;;;22.20;45.45;95243.63;6027186;19;20845;-73
2021/10/22 20:17:43;;;;;;;5.97;5.47;;;18.30;93.60;;;22.19;45.25;95248.25;6023244;19;20077;-74
2021/10/22 20:19:44;;;;;;;5.32;4.93;;;18.20;93.30;;;22.18;45.39;95246.66;6038509;19;20026;-74
2021/10/22 20:21:48;;;;;;;5.60;5.18;;;18.30;93.40;;;22.17;45.36;95247.78;6057308;19;20392;-74
2021/10/22 20:23:52;;;;;;;5.80;5.30;;;18.30;93.40;;;22.16;45.29;95248.09;6025061;19;20719;-74
2021/10/22 20:25:53;;;;;;;5.95;5.35;;;18.20;93.40;;;22.15;45.78;95255.44;6055761;19;20014;-74
2021/10/22 20:27:54;;;;;;;5.90;5.45;;;18.20;93.40;;;22.14;45.62;95259.28;6066297;19;20030;-74
2021/10/22 20:29:56;;;;;;;5.35;4.95;;;18.20;93.40;;;22.13;45.51;95256.88;6053137;19;20026;-76
2021/10/22 20:31:57;;;;;;;6.00;5.50;;;18.20;93.40;;;22.14;45.59;95263.91;6056407;19;20039;-78
2021/10/22 20:33:57;;;;;;;5.20;4.80;;;18.20;93.50;;;22.13;45.22;95267.75;6036012;19;20010;-78
2021/10/22 20:35:59;;;;;;;6.57;5.25;;;18.20;93.50;;;22.13;45.81;95267.75;6041404;19;20365;-77
2021/10/22 20:38:00;;;;;;;5.97;5.28;;;18.20;93.50;;;22.11;45.59;95270.78;6073375;19;20800;-78
2021/10/22 20:40:08;;;;;;;5.43;4.97;;;18.20;93.60;;;22.11;45.59;95276.19;6059941;19;20031;-78
2021/10/22 20:42:09;;;;;;;5.05;4.55;;;18.20;93.60;;;22.09;45.53;95278.44;6054824;19;20045;-79
2021/10/22 20:44:10;;;;;;;5.35;4.95;;;18.20;93.50;;;22.10;45.85;95287.38;6061581;19;20102;-76
2021/10/22 20:46:12;;;;;;;6.40;5.25;;;18.20;93.60;;;22.09;45.69;95277.63;6053574;19;20122;-80
2021/10/22 20:57:28;;;;;;;6.45;4.85;;;18.20;93.70;;;22.04;45.34;95294.88;6041983;19;20010;-78
2021/10/22 20:59:30;;;;;;;4.55;4.20;;;18.20;93.70;;;22.03;45.57;95301.44;6043868;19;20021;-77
2021/10/22 21:01:31;;;;;;;5.10;4.53;;;18.10;93.70;;;22.03;45.92;95306.03;6056081;19;21277;-78
2021/10/22 21:03:32;;;;;;;5.25;4.13;;;18.10;93.70;;;22.03;45.44;95308.75;6060614;19;20010;-77
2021/10/22 21:05:33;;;;;;;4.63;4.22;;;18.10;93.70;;;22.03;45.54;95311.47;6050044;19;20022;-79
2021/10/22 21:07:38;;;;;;;5.20;4.80;;;18.10;93.70;;;22.03;45.79;95306.03;6046842;19;20639;-77
2021/10/22 21:09:39;;;;;;;4.68;4.35;;;18.20;93.80;;;22.04;45.77;95313.09;6051483;19;20399;-79
2021/10/22 21:11:40;;;;;;;4.25;3.95;;;18.10;93.90;;;22.02;45.47;95318.00;6052191;19;20014;-79
2021/10/22 21:13:41;;;;;;;5.95;4.57;;;18.10;93.80;;;22.02;45.56;95310.66;6062311;19;20517;-79
2021/10/22 21:15:42;;;;;;;4.13;3.83;;;18.10;93.70;;;22.02;45.81;95320.72;6056804;19;20053;-78